createdAt,value
2022-08-01T00:00:06.696Z,7.70
2022-08-01T00:01:06.658Z,8.10
2022-08-01T00:02:06.976Z,7.80
2022-08-01T00:03:06.585Z,8.60
2022-08-01T00:04:06.549Z,7.60
2022-08-01T00:05:06.513Z,7.50
2022-08-01T00:06:06.473Z,8.00
2022-08-01T00:07:06.442Z,8.00
2022-08-01T00:08:06.413Z,7.80
2022-08-01T00:09:06.366Z,7.40
2022-08-01T00:10:06.357Z,7.40
2022-08-01T00:11:06.295Z,8.10
2022-08-01T00:12:06.254Z,7.60
2022-08-01T00:13:06.221Z,7.60
2022-08-01T00:14:06.183Z,7.80
2022-08-01T00:15:06.154Z,8.00
2022-08-01T00:16:06.118Z,8.30
2022-08-01T00:17:07.536Z,8.10
2022-08-01T00:18:06.035Z,7.60
2022-08-01T00:19:05.999Z,7.40
2022-08-01T00:20:05.962Z,7.70
2022-08-01T00:21:05.927Z,7.20
2022-08-01T00:22:06.261Z,7.60
2022-08-01T00:23:05.857Z,7.40
2022-08-01T00:24:05.813Z,7.90
2022-08-01T00:25:05.779Z,7.90
2022-08-01T00:26:05.744Z,7.30
2022-08-01T00:27:05.717Z,7.90
2022-08-01T00:28:05.670Z,7.70
2022-08-01T00:29:06.590Z,7.80
2022-08-01T00:30:10.687Z,7.50
2022-08-01T00:31:05.559Z,7.70
2022-08-01T00:32:05.918Z,7.80
2022-08-01T00:33:05.487Z,7.90
2022-08-01T00:34:05.451Z,8.00
2022-08-01T00:35:05.416Z,7.80
2022-08-01T00:36:05.386Z,8.00
2022-08-01T00:37:05.341Z,7.90
2022-08-01T00:38:05.318Z,7.40
2022-08-01T00:39:05.275Z,7.80
2022-08-01T00:40:05.241Z,7.30
2022-08-01T00:41:05.194Z,7.70
2022-08-01T00:42:05.548Z,7.60
2022-08-01T00:43:05.137Z,7.80
2022-08-01T00:44:05.085Z,7.70
2022-08-01T00:45:05.048Z,7.50
2022-08-01T00:46:05.023Z,8.10
2022-08-01T00:47:04.974Z,8.30
2022-08-01T00:48:04.937Z,7.60
2022-08-01T00:49:04.931Z,7.40
2022-08-01T00:50:04.874Z,7.60
2022-08-01T00:51:04.828Z,7.50
2022-08-01T00:52:05.110Z,7.90
2022-08-01T00:53:04.756Z,7.70
2022-08-01T00:54:04.711Z,7.70
2022-08-01T00:55:04.697Z,7.80
2022-08-01T00:56:04.646Z,8.20
2022-08-01T00:57:04.626Z,8.00
2022-08-01T00:58:06.092Z,8.00
2022-08-01T00:59:04.537Z,7.20
2022-08-01T01:00:04.496Z,8.10
2022-08-01T01:01:04.510Z,7.80
2022-08-01T01:02:04.769Z,7.80
2022-08-01T01:03:04.412Z,7.40
2022-08-01T01:04:08.519Z,8.00
2022-08-01T01:05:04.317Z,7.90
2022-08-01T01:06:04.277Z,8.10
2022-08-01T01:07:04.243Z,7.80
2022-08-01T01:08:04.202Z,8.00
2022-08-01T01:09:04.184Z,7.80
2022-08-01T01:10:04.136Z,7.70
2022-08-01T01:11:04.094Z,7.90
2022-08-01T01:12:04.609Z,8.30
2022-08-01T01:13:04.021Z,8.40
2022-08-01T01:14:03.983Z,7.90
2022-08-01T01:15:03.971Z,7.70
2022-08-01T01:16:03.910Z,7.50
2022-08-01T01:17:03.878Z,8.10
2022-08-01T01:18:03.843Z,7.50
2022-08-01T01:19:03.809Z,7.50
2022-08-01T01:20:03.763Z,7.50
2022-08-01T01:21:03.752Z,8.00
2022-08-01T01:22:03.960Z,8.20
2022-08-01T01:23:03.658Z,7.80
2022-08-01T01:24:03.614Z,7.50
2022-08-01T01:25:03.583Z,7.50
2022-08-01T01:26:03.543Z,7.80
2022-08-01T01:27:03.520Z,7.90
2022-08-01T01:28:03.489Z,7.70
2022-08-01T01:29:03.432Z,7.70
2022-08-01T01:30:03.399Z,7.70
2022-08-01T01:31:03.361Z,7.00
2022-08-01T01:32:03.682Z,7.50
2022-08-01T01:33:03.285Z,7.60
2022-08-01T01:34:03.258Z,7.60
2022-08-01T01:35:03.212Z,7.80
2022-08-01T01:36:03.178Z,7.70
2022-08-01T01:37:03.137Z,7.60
2022-08-01T01:38:03.101Z,8.40
2022-08-01T01:39:03.078Z,7.80
2022-08-01T01:40:03.026Z,7.80
2022-08-01T01:41:02.992Z,8.30
2022-08-01T01:42:03.195Z,7.70
2022-08-01T01:43:02.919Z,7.70
2022-08-01T01:44:02.879Z,7.70
2022-08-01T01:45:02.870Z,8.20
2022-08-01T01:46:02.821Z,7.80
2022-08-01T01:47:02.790Z,8.00
2022-08-01T01:48:02.738Z,8.60
2022-08-01T01:49:02.759Z,8.80
2022-08-01T01:50:02.669Z,8.60
2022-08-01T01:51:02.637Z,8.40
2022-08-01T01:52:03.167Z,8.50
2022-08-01T01:53:02.553Z,8.10
2022-08-01T01:54:02.514Z,8.20
2022-08-01T01:55:02.490Z,8.30
2022-08-01T01:56:02.440Z,8.30
2022-08-01T01:57:02.416Z,8.50
2022-08-01T01:58:02.366Z,7.90
2022-08-01T01:59:02.331Z,8.50
2022-08-01T02:00:02.298Z,8.40
2022-08-01T02:01:02.885Z,8.50
2022-08-01T02:02:05.972Z,8.50
2022-08-01T02:03:02.254Z,8.40
2022-08-01T02:04:02.148Z,8.10
2022-08-01T02:05:02.122Z,8.40
2022-08-01T02:06:02.076Z,8.80
2022-08-01T02:07:02.039Z,8.20
2022-08-01T02:08:01.998Z,8.50
2022-08-01T02:09:01.978Z,8.60
2022-08-01T02:10:01.933Z,8.70
2022-08-01T02:11:01.894Z,8.50
2022-08-01T02:12:08.133Z,8.20
2022-08-01T02:13:01.820Z,8.60
2022-08-01T02:14:01.780Z,8.20
2022-08-01T02:15:01.762Z,8.50
2022-08-01T02:16:01.708Z,8.70
2022-08-01T02:17:01.672Z,8.80
2022-08-01T02:18:01.633Z,9.10
2022-08-01T02:19:01.596Z,8.80
2022-08-01T02:20:01.576Z,8.60
2022-08-01T02:21:01.523Z,9.20
2022-08-01T02:22:01.488Z,8.90
2022-08-01T02:23:01.458Z,8.80
2022-08-01T02:24:05.726Z,9.30
2022-08-01T02:25:01.378Z,9.50
2022-08-01T02:26:10.872Z,9.20
2022-08-01T02:27:01.304Z,10.40
2022-08-01T02:28:01.267Z,9.40
2022-08-01T02:29:01.244Z,9.70
2022-08-01T02:30:01.204Z,9.10
2022-08-01T02:31:01.158Z,9.60
2022-08-01T02:32:01.139Z,9.30
2022-08-01T02:33:01.086Z,9.50
2022-08-01T02:34:01.046Z,9.50
2022-08-01T02:35:01.012Z,9.60
2022-08-01T02:36:30.741Z,9.60
2022-08-01T02:37:00.952Z,10.10
2022-08-01T02:38:00.916Z,9.60
2022-08-01T02:39:00.877Z,9.70
2022-08-01T02:40:00.823Z,9.40
2022-08-01T02:41:00.794Z,9.30
2022-08-01T02:42:00.754Z,9.90
2022-08-01T02:43:00.721Z,9.30
2022-08-01T02:44:00.691Z,9.50
2022-08-01T02:45:00.644Z,10.00
2022-08-01T02:46:00.612Z,10.00
2022-08-01T02:47:00.584Z,10.20
2022-08-01T02:48:00.534Z,10.80
2022-08-01T02:49:00.623Z,10.40
2022-08-01T02:50:00.472Z,10.10
2022-08-01T02:51:00.427Z,10.50
2022-08-01T02:52:00.394Z,9.90
2022-08-01T02:53:00.352Z,10.50
2022-08-01T02:54:00.314Z,9.80
2022-08-01T02:55:00.293Z,10.20
2022-08-01T02:56:00.242Z,10.40
2022-08-01T02:57:00.206Z,10.50
2022-08-01T02:58:00.843Z,10.30
2022-08-01T02:59:00.137Z,10.50
2022-08-01T03:00:00.127Z,10.70
2022-08-01T03:01:00.072Z,11.10
2022-08-01T03:02:00.643Z,11.90
2022-08-01T03:02:59.997Z,11.50
2022-08-01T03:03:59.953Z,11.60
2022-08-01T03:04:59.917Z,12.50
2022-08-01T03:05:59.874Z,12.00
2022-08-01T03:06:59.843Z,11.80
2022-08-01T03:08:03.811Z,11.90
2022-08-01T03:08:59.778Z,11.80
2022-08-01T03:09:59.731Z,12.10
2022-08-01T03:10:59.694Z,11.40
2022-08-01T03:11:59.665Z,12.60
2022-08-01T03:12:59.623Z,12.80
2022-08-01T03:13:59.582Z,12.50
2022-08-01T03:15:08.418Z,12.50
2022-08-01T03:15:59.508Z,12.30
2022-08-01T03:16:59.474Z,12.60
2022-08-01T03:17:59.436Z,12.20
2022-08-01T03:18:59.403Z,12.60
2022-08-01T03:19:59.368Z,12.70
2022-08-01T03:20:59.350Z,12.50
2022-08-01T03:21:59.302Z,11.90
2022-08-01T03:22:59.256Z,13.00
2022-08-01T03:23:59.215Z,12.50
2022-08-01T03:24:59.180Z,13.40
2022-08-01T03:25:59.145Z,12.60
2022-08-01T03:26:59.109Z,12.90
2022-08-01T03:27:59.077Z,13.20
2022-08-01T03:28:59.034Z,12.70
2022-08-01T03:29:59.000Z,12.90
2022-08-01T03:30:58.959Z,13.20
2022-08-01T03:31:58.935Z,12.40
2022-08-01T03:32:58.885Z,12.80
2022-08-01T03:34:01.757Z,13.90
2022-08-01T03:34:58.812Z,12.80
2022-08-01T03:35:58.773Z,13.30
2022-08-01T03:36:58.742Z,13.80
2022-08-01T03:38:16.256Z,13.00
2022-08-01T03:38:58.664Z,12.50
2022-08-01T03:39:58.630Z,13.00
2022-08-01T03:40:58.593Z,13.10
2022-08-01T03:41:58.555Z,12.80
2022-08-01T03:42:58.522Z,13.10
2022-08-01T03:43:58.669Z,13.70
2022-08-01T03:44:58.446Z,13.40
2022-08-01T03:45:58.410Z,14.00
2022-08-01T03:46:58.375Z,14.40
2022-08-01T03:47:58.348Z,14.50
2022-08-01T03:48:58.330Z,14.30
2022-08-01T03:49:58.266Z,14.80
2022-08-01T03:50:58.229Z,14.80
2022-08-01T03:51:58.189Z,15.00
2022-08-01T03:52:58.155Z,15.20
2022-08-01T03:53:58.138Z,15.00
2022-08-01T03:54:58.087Z,16.50
2022-08-01T03:55:58.048Z,16.00
2022-08-01T03:56:58.006Z,16.80
2022-08-01T03:57:57.971Z,15.80
2022-08-01T03:58:57.934Z,16.60
2022-08-01T03:59:57.906Z,15.50
2022-08-01T04:00:57.910Z,16.40
2022-08-01T04:01:57.829Z,16.40
2022-08-01T04:02:57.786Z,15.70
2022-08-01T04:03:57.751Z,16.00
2022-08-01T04:04:57.712Z,17.10
2022-08-01T04:05:57.713Z,16.60
2022-08-01T04:06:57.641Z,16.90
2022-08-01T04:07:57.604Z,16.40
2022-08-01T04:08:57.567Z,16.40
2022-08-01T04:09:57.533Z,17.40
2022-08-01T04:10:57.511Z,17.60
2022-08-01T04:11:57.457Z,17.70
2022-08-01T04:12:57.422Z,17.10
2022-08-01T04:13:57.740Z,18.00
2022-08-01T04:14:57.351Z,18.30
2022-08-01T04:15:57.317Z,18.40
2022-08-01T04:16:57.300Z,19.60
2022-08-01T04:17:57.240Z,19.80
2022-08-01T04:18:57.203Z,19.60
2022-08-01T04:19:57.164Z,18.80
2022-08-01T04:20:57.128Z,19.70
2022-08-01T04:21:57.093Z,20.10
2022-08-01T04:22:57.081Z,20.20
2022-08-01T04:23:57.021Z,20.70
2022-08-01T04:24:57.250Z,20.80
2022-08-01T04:25:56.949Z,20.20
2022-08-01T04:26:56.910Z,21.00
2022-08-01T04:27:56.887Z,20.70
2022-08-01T04:28:56.846Z,21.20
2022-08-01T04:29:56.803Z,20.50
2022-08-01T04:31:01.588Z,19.80
2022-08-01T04:31:56.727Z,21.00
2022-08-01T04:32:56.705Z,20.50
2022-08-01T04:33:56.653Z,20.70
2022-08-01T04:34:56.627Z,21.10
2022-08-01T04:36:01.503Z,19.60
2022-08-01T04:36:56.541Z,20.30
2022-08-01T04:37:56.506Z,20.40
2022-08-01T04:38:56.466Z,20.10
2022-08-01T04:39:56.432Z,20.80
2022-08-01T04:40:56.409Z,21.40
2022-08-01T04:41:56.359Z,20.10
2022-08-01T04:42:56.334Z,20.10
2022-08-01T04:43:56.297Z,19.40
2022-08-01T04:44:56.248Z,19.80
2022-08-01T04:45:56.212Z,21.40
2022-08-01T04:46:56.174Z,20.00
2022-08-01T04:47:56.137Z,20.20
2022-08-01T04:48:56.160Z,20.80
2022-08-01T04:49:56.076Z,20.70
2022-08-01T04:50:56.027Z,20.50
2022-08-01T04:51:55.992Z,20.20
2022-08-01T04:52:55.953Z,19.80
2022-08-01T04:53:55.917Z,19.40
2022-08-01T04:54:55.880Z,19.80
2022-08-01T04:55:55.855Z,19.00
2022-08-01T04:56:55.806Z,19.30
2022-08-01T04:57:55.771Z,19.60
2022-08-01T04:58:55.734Z,19.20
2022-08-01T04:59:55.698Z,18.50
2022-08-01T05:00:55.686Z,19.70
2022-08-01T05:01:55.637Z,19.90
2022-08-01T05:02:55.611Z,19.60
2022-08-01T05:03:55.553Z,19.80
2022-08-01T05:04:55.516Z,18.80
2022-08-01T05:05:55.484Z,19.60
2022-08-01T05:06:55.444Z,18.80
2022-08-01T05:07:55.418Z,19.30
2022-08-01T05:08:55.371Z,19.40
2022-08-01T05:09:55.332Z,19.30
2022-08-01T05:10:55.296Z,19.20
2022-08-01T05:11:55.271Z,19.00
2022-08-01T05:12:55.222Z,19.40
2022-08-01T05:13:55.209Z,19.70
2022-08-01T05:14:55.151Z,20.00
2022-08-01T05:15:55.119Z,19.40
2022-08-01T05:16:55.077Z,18.90
2022-08-01T05:17:55.043Z,19.00
2022-08-01T05:18:55.005Z,18.20
2022-08-01T05:19:54.977Z,19.20
2022-08-01T05:20:54.932Z,18.10
2022-08-01T05:21:54.894Z,20.10
2022-08-01T05:22:54.861Z,19.70
2022-08-01T05:23:54.823Z,20.00
2022-08-01T05:24:54.796Z,20.90
2022-08-01T05:25:57.350Z,19.40
2022-08-01T05:26:54.714Z,19.50
2022-08-01T05:27:54.675Z,20.20
2022-08-01T05:28:55.388Z,20.10
2022-08-01T05:29:54.602Z,20.80
2022-08-01T05:30:54.564Z,20.40
2022-08-01T05:31:54.538Z,21.00
2022-08-01T05:32:54.504Z,20.50
2022-08-01T05:33:54.466Z,20.10
2022-08-01T05:34:54.422Z,20.90
2022-08-01T05:35:54.390Z,20.30
2022-08-01T05:36:57.701Z,21.30
2022-08-01T05:37:54.339Z,21.90
2022-08-01T05:38:54.273Z,21.20
2022-08-01T05:39:54.238Z,21.90
2022-08-01T05:40:54.202Z,22.00
2022-08-01T05:41:54.170Z,20.20
2022-08-01T05:42:54.137Z,20.30
2022-08-01T05:43:54.103Z,21.00
2022-08-01T05:44:54.056Z,21.20
2022-08-01T05:45:54.020Z,21.80
2022-08-01T05:46:53.982Z,21.80
2022-08-01T05:47:53.950Z,21.10
2022-08-01T05:48:53.961Z,21.30
2022-08-01T05:49:53.902Z,21.60
2022-08-01T05:50:58.069Z,21.20
2022-08-01T05:51:53.807Z,23.00
2022-08-01T05:52:53.773Z,21.50
2022-08-01T05:53:53.742Z,21.50
2022-08-01T05:54:53.707Z,21.80
2022-08-01T05:55:53.657Z,22.90
2022-08-01T05:56:53.628Z,22.00
2022-08-01T05:57:53.602Z,21.60
2022-08-01T05:58:53.548Z,22.30
2022-08-01T05:59:53.512Z,20.80
2022-08-01T06:00:53.477Z,21.60
2022-08-01T06:01:53.519Z,21.70
2022-08-01T06:02:53.405Z,20.70
2022-08-01T06:03:53.387Z,20.40
2022-08-01T06:04:53.333Z,21.20
2022-08-01T06:05:53.302Z,20.40
2022-08-01T06:06:53.260Z,20.60
2022-08-01T06:07:53.248Z,21.00
2022-08-01T06:08:53.187Z,20.30
2022-08-01T06:09:53.152Z,20.70
2022-08-01T06:10:53.116Z,19.20
2022-08-01T06:11:53.077Z,19.50
2022-08-01T06:12:53.045Z,20.50
2022-08-01T06:13:53.025Z,19.70
2022-08-01T06:14:52.977Z,20.20
2022-08-01T06:15:52.955Z,20.20
2022-08-01T06:16:52.908Z,20.10
2022-08-01T06:17:52.888Z,20.40
2022-08-01T06:18:56.526Z,19.80
2022-08-01T06:19:52.796Z,20.00
2022-08-01T06:20:52.755Z,20.70
2022-08-01T06:21:52.731Z,20.10
2022-08-01T06:22:52.808Z,20.00
2022-08-01T06:23:52.674Z,20.70
2022-08-01T06:24:52.630Z,20.70
2022-08-01T06:25:52.578Z,20.00
2022-08-01T06:26:52.548Z,20.20
2022-08-01T06:27:52.511Z,19.70
2022-08-01T06:28:52.494Z,19.70
2022-08-01T06:29:54.101Z,20.00
2022-08-01T06:33:19.581Z,19.50
2022-08-01T06:34:19.539Z,19.50
2022-08-01T06:35:19.539Z,19.70
2022-08-01T06:36:19.466Z,19.30
2022-08-01T06:37:19.432Z,20.20
2022-08-01T06:38:19.413Z,19.70
2022-08-01T06:39:19.358Z,19.70
2022-08-01T06:40:19.329Z,18.00
2022-08-01T06:41:19.301Z,18.80
2022-08-01T06:42:19.255Z,19.00
2022-08-01T06:43:19.219Z,18.20
2022-08-01T06:44:19.181Z,19.00
2022-08-01T06:45:19.166Z,18.50
2022-08-01T06:46:19.150Z,18.80
2022-08-01T06:47:19.080Z,19.20
2022-08-01T06:48:19.041Z,18.60
2022-08-01T06:49:19.056Z,18.40
2022-08-01T06:50:18.970Z,17.70
2022-08-01T06:51:18.935Z,17.60
2022-08-01T06:52:18.911Z,16.60
2022-08-01T06:53:18.866Z,16.50
2022-08-01T06:54:18.829Z,16.20
2022-08-01T06:55:18.794Z,16.00
2022-08-01T06:56:18.763Z,15.70
2022-08-01T06:57:18.726Z,14.10
2022-08-01T06:58:18.710Z,13.80
2022-08-01T06:59:18.671Z,12.50
2022-08-01T07:00:18.619Z,12.10
2022-08-01T07:01:18.694Z,12.20
2022-08-01T07:02:18.553Z,11.50
2022-08-01T07:03:18.513Z,10.80
2022-08-01T07:04:18.485Z,10.60
2022-08-01T07:05:18.461Z,10.20
2022-08-01T07:06:18.441Z,9.40
2022-08-01T07:07:18.422Z,9.50
2022-08-01T07:08:18.345Z,9.80
2022-08-01T07:09:18.310Z,8.40
2022-08-01T07:10:18.277Z,7.30
2022-08-01T07:11:18.258Z,7.50
2022-08-01T07:12:18.220Z,7.10
2022-08-01T07:13:18.176Z,7.00
2022-08-01T07:14:18.139Z,6.80
2022-08-01T07:15:18.108Z,7.40
2022-08-01T07:16:18.073Z,7.00
2022-08-01T07:17:18.059Z,6.60
2022-08-01T07:18:18.005Z,6.60
2022-08-01T07:19:17.985Z,6.40
2022-08-01T07:20:17.941Z,6.00
2022-08-01T07:21:40.666Z,5.30
2022-08-01T07:22:23.617Z,5.60
2022-08-01T07:23:17.843Z,5.30
2022-08-01T07:24:19.496Z,5.30
2022-08-01T07:25:18.042Z,5.20
2022-08-01T07:26:17.741Z,5.00
2022-08-01T07:27:25.608Z,5.10
2022-08-01T07:28:17.675Z,5.20
2022-08-01T07:29:17.643Z,4.50
2022-08-01T07:30:17.609Z,4.70
2022-08-01T07:31:17.590Z,4.80
2022-08-01T07:32:17.544Z,4.60
2022-08-01T07:33:17.510Z,4.70
2022-08-01T07:34:17.476Z,4.50
2022-08-01T07:35:17.448Z,4.10
2022-08-01T07:36:17.419Z,4.00
2022-08-01T07:37:17.389Z,4.10
2022-08-01T07:38:17.345Z,4.40
2022-08-01T07:39:17.327Z,4.40
2022-08-01T07:40:17.281Z,4.50
2022-08-01T07:41:17.252Z,4.80
2022-08-01T07:42:17.232Z,4.30
2022-08-01T07:43:17.186Z,4.10
2022-08-01T07:44:17.162Z,4.00
2022-08-01T07:45:17.120Z,4.40
2022-08-01T07:46:17.098Z,4.50
2022-08-01T07:47:17.051Z,4.00
2022-08-01T07:48:17.018Z,4.00
2022-08-01T07:49:17.038Z,3.70
2022-08-01T07:50:16.951Z,3.90
2022-08-01T07:51:16.929Z,4.00
2022-08-01T07:52:17.038Z,3.70
2022-08-01T07:53:16.856Z,3.90
2022-08-01T07:54:16.823Z,4.00
2022-08-01T07:55:16.942Z,3.70
2022-08-01T07:56:16.757Z,4.30
2022-08-01T07:57:16.736Z,4.10
2022-08-01T07:58:16.689Z,4.00
2022-08-01T07:59:17.489Z,3.80
2022-08-01T08:00:16.622Z,3.70
2022-08-01T08:01:16.591Z,3.40
2022-08-01T08:02:16.611Z,3.60
2022-08-01T08:03:16.532Z,3.60
2022-08-01T08:04:16.491Z,3.40
2022-08-01T08:05:16.456Z,3.90
2022-08-01T08:06:16.422Z,3.60
2022-08-01T08:07:16.396Z,3.60
2022-08-01T08:08:16.358Z,3.30
2022-08-01T08:09:16.333Z,3.10
2022-08-01T08:10:16.290Z,3.20
2022-08-01T08:11:16.474Z,3.10
2022-08-01T08:12:16.226Z,3.00
2022-08-01T08:13:16.200Z,3.20
2022-08-01T08:14:16.172Z,3.40
2022-08-01T08:15:16.160Z,3.40
2022-08-01T08:16:16.093Z,3.20
2022-08-01T08:17:16.062Z,3.10
2022-08-01T08:18:16.062Z,2.90
2022-08-01T08:19:16.004Z,2.80
2022-08-01T08:20:15.965Z,2.50
2022-08-01T08:21:15.957Z,2.40
2022-08-01T08:22:15.901Z,2.30
2022-08-01T08:23:15.866Z,2.30
2022-08-01T08:24:15.834Z,2.30
2022-08-01T08:25:15.802Z,2.70
2022-08-01T08:26:15.778Z,2.50
2022-08-01T08:27:15.742Z,2.50
2022-08-01T08:28:15.706Z,2.90
2022-08-01T08:29:15.673Z,2.70
2022-08-01T08:30:15.883Z,3.00
2022-08-01T08:31:25.242Z,2.90
2022-08-01T08:32:15.586Z,3.10
2022-08-01T08:33:15.542Z,3.40
2022-08-01T08:34:15.510Z,3.60
2022-08-01T08:35:22.947Z,3.60
2022-08-01T08:36:15.445Z,3.60
2022-08-01T08:37:15.483Z,3.60
2022-08-01T08:38:15.401Z,3.40
2022-08-01T08:39:15.353Z,3.40
2022-08-01T08:40:15.319Z,3.10
2022-08-01T08:41:20.666Z,2.70
2022-08-01T08:42:15.257Z,2.40
2022-08-01T08:43:15.227Z,2.50
2022-08-01T08:44:15.200Z,2.50
2022-08-01T08:45:15.171Z,2.70
2022-08-01T08:46:15.126Z,2.70
2022-08-01T08:47:19.750Z,2.80
2022-08-01T08:48:15.427Z,2.70
2022-08-01T08:49:15.204Z,2.50
2022-08-01T08:50:15.038Z,2.60
2022-08-01T08:51:14.972Z,2.50
2022-08-01T08:52:14.933Z,2.30
2022-08-01T08:53:18.592Z,2.30
2022-08-01T08:54:15.071Z,2.10
2022-08-01T08:55:15.031Z,2.20
2022-08-01T08:56:14.804Z,2.50
2022-08-01T08:57:14.777Z,2.30
2022-08-01T08:58:14.741Z,2.50
2022-08-01T08:59:14.718Z,2.40
2022-08-01T09:00:14.677Z,2.60
2022-08-01T09:01:14.673Z,2.90
2022-08-01T09:02:14.909Z,2.70
2022-08-01T09:03:14.650Z,2.90
2022-08-01T09:04:14.550Z,2.90
2022-08-01T09:05:19.245Z,2.80
2022-08-01T09:06:14.500Z,3.00
2022-08-01T09:07:14.462Z,3.10
2022-08-01T09:08:14.423Z,3.40
2022-08-01T09:09:14.393Z,3.30
2022-08-01T09:10:14.363Z,3.10
2022-08-01T09:11:22.602Z,2.90
2022-08-01T09:12:14.321Z,3.30
2022-08-01T09:13:14.268Z,3.40
2022-08-01T09:14:14.698Z,3.50
2022-08-01T09:15:23.588Z,3.40
2022-08-01T09:16:14.175Z,3.60
2022-08-01T09:17:14.145Z,3.20
2022-08-01T09:18:14.107Z,3.70
2022-08-01T09:19:15.992Z,3.50
2022-08-01T09:20:14.057Z,3.70
2022-08-01T09:21:14.010Z,3.80
2022-08-01T09:22:13.982Z,3.50
2022-08-01T09:23:13.948Z,3.70
2022-08-01T09:24:13.914Z,3.60
2022-08-01T09:25:13.885Z,3.40
2022-08-01T09:26:13.857Z,3.40
2022-08-01T09:27:13.819Z,3.30
2022-08-01T09:28:13.794Z,3.10
2022-08-01T09:29:13.753Z,3.30
2022-08-01T09:30:13.978Z,3.30
2022-08-01T09:31:13.689Z,3.10
2022-08-01T09:32:16.412Z,3.40
2022-08-01T09:33:21.503Z,3.30
2022-08-01T09:34:13.587Z,3.50
2022-08-01T09:35:13.556Z,3.70
2022-08-01T09:36:13.523Z,3.40
2022-08-01T09:37:13.500Z,3.60
2022-08-01T09:38:13.461Z,3.80
2022-08-01T09:39:13.425Z,3.30
2022-08-01T09:40:13.393Z,3.00
2022-08-01T09:41:14.267Z,3.00
2022-08-01T09:42:13.343Z,2.80
2022-08-01T09:43:14.863Z,2.80
2022-08-01T09:44:13.263Z,2.90
2022-08-01T09:45:23.330Z,3.10
2022-08-01T09:46:13.201Z,3.00
2022-08-01T09:47:15.366Z,3.00
2022-08-01T09:48:13.145Z,3.10
2022-08-01T09:49:13.204Z,3.10
2022-08-01T09:50:13.073Z,3.10
2022-08-01T09:51:13.059Z,2.90
2022-08-01T09:52:13.012Z,3.00
2022-08-01T09:53:30.238Z,3.00
2022-08-01T09:54:12.946Z,2.80
2022-08-01T09:55:12.915Z,2.90
2022-08-01T09:56:12.887Z,3.10
2022-08-01T09:57:12.858Z,3.10
2022-08-01T09:58:12.829Z,2.80
2022-08-01T09:59:12.793Z,3.20
2022-08-01T10:00:24.243Z,3.00
2022-08-01T10:01:12.728Z,2.90
2022-08-01T10:02:12.701Z,3.00
2022-08-01T10:03:12.751Z,2.80
2022-08-01T10:04:12.664Z,2.60
2022-08-01T10:05:20.921Z,2.50
2022-08-01T10:06:12.574Z,2.70
2022-08-01T10:07:12.542Z,2.30
2022-08-01T10:08:12.512Z,2.70
2022-08-01T10:09:12.492Z,2.50
2022-08-01T10:10:12.453Z,2.50
2022-08-01T10:11:12.545Z,2.80
2022-08-01T10:12:15.985Z,2.70
2022-08-01T10:13:12.361Z,2.70
2022-08-01T10:14:12.343Z,2.80
2022-08-01T10:15:12.316Z,2.60
2022-08-01T10:16:12.355Z,2.30
2022-08-01T10:17:12.238Z,2.40
2022-08-01T10:18:16.584Z,2.30
2022-08-01T10:19:15.509Z,2.40
2022-08-01T10:20:28.838Z,2.40
2022-08-01T10:21:12.130Z,2.70
2022-08-01T10:22:12.089Z,2.60
2022-08-01T10:23:12.060Z,2.70
2022-08-01T10:24:12.031Z,2.80
2022-08-01T10:25:12.014Z,2.30
2022-08-01T10:26:11.971Z,2.40
2022-08-01T10:27:12.711Z,2.50
2022-08-01T10:28:11.913Z,2.10
2022-08-01T10:29:24.353Z,2.30
2022-08-01T10:30:19.447Z,2.30
2022-08-01T10:31:12.534Z,2.40
2022-08-01T10:32:11.796Z,2.10
2022-08-01T10:33:11.781Z,2.00
2022-08-01T10:34:11.737Z,2.20
2022-08-01T10:35:15.073Z,2.20
2022-08-01T10:36:11.682Z,2.20
2022-08-01T10:37:11.657Z,2.30
2022-08-01T10:38:13.741Z,2.30
2022-08-01T10:39:11.607Z,2.50
2022-08-01T10:40:29.215Z,2.50
2022-08-01T10:41:11.539Z,2.30
2022-08-01T10:42:15.658Z,2.00
2022-08-01T10:43:11.481Z,2.10
2022-08-01T10:44:11.453Z,2.20
2022-08-01T10:45:11.439Z,2.10
2022-08-01T10:46:11.394Z,2.10
2022-08-01T10:47:11.371Z,2.10
2022-08-01T10:48:11.339Z,2.30
2022-08-01T10:49:11.326Z,2.10
2022-08-01T10:50:11.280Z,2.10
2022-08-01T10:51:17.861Z,2.20
2022-08-01T10:52:11.234Z,2.00
2022-08-01T10:53:16.011Z,2.10
2022-08-01T10:54:11.168Z,1.90
2022-08-01T10:55:11.140Z,2.30
2022-08-01T10:56:13.181Z,2.20
2022-08-01T10:57:11.080Z,2.20
2022-08-01T10:58:11.052Z,1.80
2022-08-01T10:59:11.817Z,2.00
2022-08-01T11:00:10.988Z,2.00
2022-08-01T11:01:11.021Z,1.90
2022-08-01T11:02:10.954Z,1.90
2022-08-01T11:03:10.901Z,2.00
2022-08-01T11:04:16.014Z,1.80
2022-08-01T11:05:10.839Z,1.80
2022-08-01T11:06:10.821Z,2.10
2022-08-01T11:07:11.128Z,1.80
2022-08-01T11:08:10.778Z,1.90
2022-08-01T11:09:10.715Z,1.80
2022-08-01T11:10:14.878Z,1.80
2022-08-01T11:11:10.652Z,1.70
2022-08-01T11:12:13.641Z,1.60
2022-08-01T11:13:10.590Z,1.70
2022-08-01T11:14:10.686Z,1.70
2022-08-01T11:15:10.537Z,1.70
2022-08-01T11:16:16.410Z,1.80
2022-08-01T11:17:10.465Z,1.70
2022-08-01T11:18:10.434Z,1.70
2022-08-01T11:19:10.405Z,1.70
2022-08-01T11:20:10.383Z,1.50
2022-08-01T11:21:58.606Z,1.40
2022-08-01T11:22:10.310Z,1.40
2022-08-01T11:23:10.280Z,1.50
2022-08-01T11:24:10.247Z,1.40
2022-08-01T11:25:10.217Z,1.30
2022-08-01T11:26:10.696Z,1.30
2022-08-01T11:27:10.156Z,1.30
2022-08-01T11:28:14.824Z,1.30
2022-08-01T11:29:19.897Z,1.50
2022-08-01T11:30:12.894Z,1.20
2022-08-01T11:31:11.300Z,1.30
2022-08-01T11:32:09.999Z,1.40
2022-08-01T11:33:10.399Z,1.40
2022-08-01T11:34:09.935Z,1.40
2022-08-01T11:35:09.904Z,1.20
2022-08-01T11:36:09.876Z,1.40
2022-08-01T11:37:10.215Z,1.40
2022-08-01T11:38:09.811Z,1.20
2022-08-01T11:39:13.546Z,1.30
2022-08-01T11:40:09.754Z,1.30
2022-08-01T11:41:09.723Z,1.20
2022-08-01T11:42:09.692Z,1.40
2022-08-01T11:43:09.672Z,1.30
2022-08-01T11:44:09.636Z,1.20
2022-08-01T11:45:09.604Z,1.20
2022-08-01T11:46:09.605Z,1.20
2022-08-01T11:47:10.607Z,1.20
2022-08-01T11:48:10.168Z,1.20
2022-08-01T11:49:09.540Z,1.20
2022-08-01T11:50:09.456Z,1.20
2022-08-01T11:51:09.428Z,1.20
2022-08-01T11:52:09.401Z,1.20
2022-08-01T11:53:09.370Z,1.20
2022-08-01T11:54:09.344Z,1.10
2022-08-01T11:55:10.369Z,1.30
2022-08-01T11:56:09.286Z,1.20
2022-08-01T11:57:10.220Z,1.20
2022-08-01T11:58:22.250Z,1.20
2022-08-01T11:59:15.079Z,1.30
2022-08-01T12:00:09.256Z,1.20
2022-08-01T12:01:09.218Z,1.30
2022-08-01T12:02:09.164Z,1.30
2022-08-01T12:03:09.092Z,1.30
2022-08-01T12:04:09.062Z,1.50
2022-08-01T12:05:11.640Z,1.20
2022-08-01T12:06:09.008Z,1.30
2022-08-01T12:07:09.203Z,1.40
2022-08-01T12:08:08.947Z,1.10
2022-08-01T12:09:12.046Z,1.20
2022-08-01T12:10:08.890Z,1.30
2022-08-01T12:11:08.879Z,1.30
2022-08-01T12:12:08.839Z,1.50
2022-08-01T12:13:08.802Z,1.50
2022-08-01T12:14:08.773Z,1.50
2022-08-01T12:15:10.132Z,1.70
2022-08-01T12:16:08.806Z,1.60
2022-08-01T12:17:09.088Z,1.60
2022-08-01T12:18:08.913Z,2.00
2022-08-01T12:19:11.751Z,2.00
2022-08-01T12:20:08.590Z,1.80
2022-08-01T12:21:08.557Z,1.90
2022-08-01T12:22:08.527Z,1.70
2022-08-01T12:23:08.509Z,1.60
2022-08-01T12:24:08.483Z,1.70
2022-08-01T12:25:08.438Z,1.70
2022-08-01T12:26:08.404Z,1.50
2022-08-01T12:27:08.820Z,1.80
2022-08-01T12:28:08.344Z,1.70
2022-08-01T12:29:08.334Z,1.90
2022-08-01T12:30:08.283Z,1.80
2022-08-01T12:31:08.253Z,1.70
2022-08-01T12:32:08.230Z,1.60
2022-08-01T12:33:08.195Z,1.70
2022-08-01T12:34:08.169Z,1.50
2022-08-01T12:35:08.155Z,1.50
2022-08-01T12:36:08.107Z,1.40
2022-08-01T12:37:08.185Z,1.40
2022-08-01T12:38:08.048Z,1.80
2022-08-01T12:39:08.023Z,1.40
2022-08-01T12:40:07.992Z,1.70
2022-08-01T12:41:07.975Z,1.80
2022-08-01T12:42:07.967Z,1.60
2022-08-01T12:43:08.827Z,1.70
2022-08-01T12:44:07.876Z,1.80
2022-08-01T12:45:07.846Z,1.60
2022-08-01T12:46:07.830Z,1.70
2022-08-01T12:47:08.225Z,1.50
2022-08-01T12:48:07.765Z,1.50
2022-08-01T12:49:07.797Z,1.50
2022-08-01T12:50:07.701Z,1.50
2022-08-01T12:51:07.671Z,1.50
2022-08-01T12:52:12.870Z,1.50
2022-08-01T12:53:07.611Z,1.40
2022-08-01T12:54:07.584Z,1.50
2022-08-01T12:55:09.570Z,1.60
2022-08-01T12:56:07.523Z,1.30
2022-08-01T12:57:07.910Z,1.20
2022-08-01T12:58:08.785Z,1.50
2022-08-01T12:59:07.432Z,1.10
2022-08-01T13:00:07.420Z,1.40
2022-08-01T13:01:07.489Z,1.40
2022-08-01T13:02:07.829Z,1.70
2022-08-01T13:03:07.313Z,1.50
2022-08-01T13:04:07.295Z,1.40
2022-08-01T13:05:07.255Z,1.80
2022-08-01T13:06:07.223Z,1.70
2022-08-01T13:07:07.628Z,1.80
2022-08-01T13:08:07.402Z,1.80
2022-08-01T13:09:07.151Z,1.70
2022-08-01T13:10:07.150Z,1.90
2022-08-01T13:11:07.073Z,1.90